createdAt,value
2023-04-26T00:01:31.218Z,1.00
2023-04-26T00:03:58.184Z,1.00
2023-04-26T00:06:27.232Z,1.00
2023-04-26T00:08:54.540Z,1.00
2023-04-26T00:11:21.736Z,1.00
2023-04-26T00:13:48.511Z,1.00
2023-04-26T00:16:15.460Z,1.00
2023-04-26T00:18:43.305Z,1.00
2023-04-26T00:21:10.225Z,1.00
2023-04-26T00:23:37.028Z,1.00
2023-04-26T00:26:04.478Z,1.00
2023-04-26T00:28:31.530Z,1.00
2023-04-26T00:30:58.417Z,1.00
2023-04-26T00:33:26.015Z,1.00
2023-04-26T00:35:52.818Z,1.00
2023-04-26T00:38:19.635Z,1.00
2023-04-26T00:40:46.486Z,1.00
2023-04-26T00:43:13.243Z,1.00
2023-04-26T00:45:40.014Z,1.00
2023-04-26T00:48:06.963Z,1.00
2023-04-26T00:50:34.172Z,1.00
2023-04-26T00:53:02.656Z,1.00
2023-04-26T00:55:29.598Z,1.00
2023-04-26T00:57:56.462Z,1.00
2023-04-26T01:00:23.321Z,1.00
2023-04-26T01:02:51.148Z,1.00
2023-04-26T01:05:18.265Z,1.00
2023-04-26T01:07:45.371Z,1.00
2023-04-26T01:10:12.300Z,1.00
2023-04-26T01:12:39.237Z,1.00
2023-04-26T01:15:06.446Z,1.00
2023-04-26T01:17:33.885Z,1.00
2023-04-26T01:20:00.768Z,1.00
2023-04-26T01:22:28.640Z,1.00
2023-04-26T01:24:56.547Z,1.00
2023-04-26T01:27:23.369Z,1.00
2023-04-26T01:29:50.093Z,1.00
2023-04-26T01:32:16.918Z,1.00
2023-04-26T01:34:43.753Z,1.00
2023-04-26T01:37:10.772Z,1.00
2023-04-26T01:39:37.522Z,17.70
2023-04-26T01:42:05.135Z,18.00
2023-04-26T01:44:32.022Z,1.50
2023-04-26T01:46:58.838Z,1.00
2023-04-26T01:49:25.702Z,3.70
2023-04-26T01:51:53.373Z,1.80
2023-04-26T01:54:20.317Z,1.00
2023-04-26T01:56:47.118Z,1.00
2023-04-26T01:59:13.862Z,1.00
2023-04-26T02:01:43.700Z,1.00
2023-04-26T02:04:10.708Z,1.00
2023-04-26T02:06:41.634Z,1.00
2023-04-26T02:09:09.879Z,1.00
2023-04-26T02:11:36.737Z,1.00
2023-04-26T02:14:03.508Z,1.00
2023-04-26T02:16:30.600Z,1.00
2023-04-26T02:18:57.498Z,1.00
2023-04-26T02:21:24.228Z,1.00
2023-04-26T02:23:50.969Z,1.00
2023-04-26T02:26:17.714Z,1.00
2023-04-26T02:28:44.477Z,10.00
2023-04-26T02:31:11.425Z,41.00
2023-04-26T02:33:38.247Z,93.10
2023-04-26T02:36:08.920Z,49.00
2023-04-26T02:38:36.700Z,26.80
2023-04-26T02:41:04.111Z,11.40
2023-04-26T02:43:31.050Z,9.40
2023-04-26T02:46:01.424Z,11.00
2023-04-26T02:48:28.653Z,30.30
2023-04-26T02:50:55.523Z,13.90
2023-04-26T02:53:22.255Z,18.20
2023-04-26T02:55:49.026Z,25.10
2023-04-26T02:58:15.820Z,35.40
2023-04-26T03:00:48.872Z,28.50
2023-04-26T03:03:16.073Z,40.00
2023-04-26T03:05:43.134Z,40.70
2023-04-26T03:08:09.908Z,56.60
2023-04-26T03:10:36.660Z,89.70
2023-04-26T03:13:04.945Z,99.90
2023-04-26T03:15:31.721Z,98.70
2023-04-26T03:17:58.567Z,99.90
2023-04-26T03:20:25.756Z,99.90
2023-04-26T03:22:52.624Z,99.90
2023-04-26T03:25:19.652Z,99.90
2023-04-26T03:27:46.437Z,99.90
2023-04-26T03:30:13.646Z,99.90
2023-04-26T03:32:40.491Z,99.90
2023-04-26T03:35:07.568Z,99.90
2023-04-26T03:37:34.364Z,99.90
2023-04-26T03:40:01.266Z,99.90
2023-04-26T03:42:28.024Z,99.90
2023-04-26T03:44:54.780Z,99.90
2023-04-26T03:47:21.564Z,99.90
2023-04-26T03:49:48.303Z,99.90
2023-04-26T03:52:15.112Z,99.90
2023-04-26T03:54:41.993Z,99.90
2023-04-26T03:57:08.750Z,99.90
2023-04-26T03:59:35.581Z,99.90
2023-04-26T04:02:02.386Z,99.90
2023-04-26T04:04:29.377Z,99.90
2023-04-26T04:06:56.274Z,99.90
2023-04-26T04:09:23.055Z,99.90
2023-04-26T04:11:49.774Z,99.90
2023-04-26T04:14:16.522Z,99.90
2023-04-26T04:16:43.273Z,99.90
2023-04-26T04:19:10.020Z,99.90
2023-04-26T04:21:36.787Z,99.90
2023-04-26T04:24:04.052Z,99.90
2023-04-26T04:26:31.106Z,99.90
2023-04-26T04:28:58.596Z,99.90
2023-04-26T04:31:25.385Z,99.90
2023-04-26T04:33:52.197Z,99.90
2023-04-26T04:36:18.920Z,99.90
2023-04-26T04:38:45.705Z,99.90
2023-04-26T04:41:12.454Z,99.90
2023-04-26T04:43:39.185Z,99.90
2023-04-26T04:46:06.147Z,99.90
2023-04-26T04:48:33.593Z,99.90
2023-04-26T04:51:00.614Z,99.90
2023-04-26T04:53:27.469Z,1.00
2023-04-26T04:55:54.306Z,1.00
2023-04-26T04:58:22.488Z,1.00
2023-04-26T05:00:50.324Z,1.00
2023-04-26T05:03:17.303Z,1.00
2023-04-26T05:05:44.170Z,1.00
2023-04-26T05:08:11.630Z,1.00
2023-04-26T05:10:38.396Z,1.00
2023-04-26T05:13:06.094Z,1.00
2023-04-26T05:15:33.024Z,1.00
2023-04-26T05:17:59.827Z,1.00
2023-04-26T05:20:26.652Z,1.00
2023-04-26T05:22:53.449Z,1.00
2023-04-26T05:25:22.269Z,1.00
2023-04-26T05:27:49.551Z,1.00
2023-04-26T05:30:16.700Z,1.00
2023-04-26T05:32:43.556Z,1.00
2023-04-26T05:35:10.372Z,1.00
2023-04-26T05:37:37.192Z,38.70
2023-04-26T05:40:04.786Z,1.00
2023-04-26T05:42:31.539Z,1.00
2023-04-26T05:44:59.041Z,28.50
2023-04-26T05:47:26.546Z,23.80
2023-04-26T05:49:53.385Z,99.90
2023-04-26T05:52:20.151Z,99.90
2023-04-26T05:54:47.011Z,99.90
2023-04-26T05:57:13.851Z,99.90
2023-04-26T05:59:41.281Z,99.90
2023-04-26T06:02:08.100Z,99.90
2023-04-26T06:04:35.509Z,99.90
2023-04-26T06:07:02.528Z,99.90
2023-04-26T06:09:31.607Z,99.90
2023-04-26T06:12:00.873Z,99.90
2023-04-26T06:14:30.746Z,99.90
2023-04-26T06:16:58.181Z,99.90
2023-04-26T06:19:25.435Z,99.90
2023-04-26T06:21:54.916Z,99.90
2023-04-26T06:24:21.809Z,99.90
2023-04-26T06:26:48.561Z,99.90
2023-04-26T06:29:15.468Z,99.90
2023-04-26T06:31:42.318Z,99.90
2023-04-26T06:34:09.084Z,1.00
2023-04-26T06:36:35.917Z,1.00
2023-04-26T06:39:02.706Z,1.00
2023-04-26T06:41:29.636Z,17.20
2023-04-26T06:43:56.458Z,99.90
2023-04-26T06:46:23.269Z,50.80
2023-04-26T06:48:50.056Z,66.40
2023-04-26T06:51:16.853Z,20.60
2023-04-26T06:53:43.619Z,45.20
2023-04-26T06:56:10.396Z,71.90
2023-04-26T06:58:37.216Z,99.90
2023-04-26T07:01:04.004Z,99.90
2023-04-26T07:03:31.081Z,99.90
2023-04-26T07:05:58.105Z,27.30
2023-04-26T07:08:24.911Z,57.40
2023-04-26T07:10:52.079Z,1.40
2023-04-26T07:13:19.072Z,1.00
2023-04-26T07:15:45.905Z,99.90
2023-04-26T07:18:12.821Z,18.90
2023-04-26T07:20:39.631Z,99.90
2023-04-26T07:23:06.760Z,34.00
2023-04-26T07:25:33.982Z,7.70
2023-04-26T07:28:00.809Z,99.90
2023-04-26T07:30:27.634Z,99.90
2023-04-26T07:32:54.442Z,99.90
2023-04-26T07:35:21.305Z,1.00
2023-04-26T07:37:48.074Z,1.00
2023-04-26T07:40:15.230Z,1.00
2023-04-26T07:42:42.134Z,1.00
2023-04-26T07:45:09.652Z,7.70
2023-04-26T07:47:36.729Z,1.00
2023-04-26T07:50:03.717Z,1.00
2023-04-26T07:52:30.546Z,1.00
2023-04-26T07:54:57.321Z,1.00
2023-04-26T07:57:24.568Z,1.00
2023-04-26T07:59:51.387Z,1.00
2023-04-26T08:02:20.248Z,1.00
2023-04-26T08:04:52.747Z,1.00
2023-04-26T08:07:19.771Z,1.00
2023-04-26T08:09:46.749Z,1.00
2023-04-26T08:12:13.638Z,1.00
2023-04-26T08:14:41.012Z,1.00
2023-04-26T08:17:11.865Z,1.00
2023-04-26T08:19:38.688Z,1.00
2023-04-26T08:22:05.994Z,99.90
2023-04-26T08:24:32.946Z,99.90
2023-04-26T08:26:59.698Z,99.90
2023-04-26T08:29:27.536Z,99.90
2023-04-26T08:31:54.632Z,99.90
2023-04-26T08:34:21.436Z,99.90
2023-04-26T08:36:48.189Z,99.90
2023-04-26T08:39:14.993Z,99.90
2023-04-26T08:41:48.220Z,99.90
2023-04-26T08:44:15.342Z,99.90
2023-04-26T08:46:56.638Z,99.90
2023-04-26T08:49:43.949Z,99.90
2023-04-26T08:52:12.990Z,99.90
2023-04-26T08:54:41.111Z,99.90
2023-04-26T08:57:08.833Z,99.90
2023-04-26T08:59:39.657Z,99.90
2023-04-26T09:02:07.452Z,99.90
2023-04-26T09:04:34.555Z,99.90
2023-04-26T09:07:03.109Z,99.90
2023-04-26T09:09:42.809Z,99.90
2023-04-26T09:12:09.810Z,99.90
2023-04-26T09:14:36.725Z,99.90
2023-04-26T09:17:03.510Z,99.90
2023-04-26T09:19:42.598Z,99.90
2023-04-26T09:22:09.481Z,99.90
2023-04-26T09:24:50.470Z,99.90
2023-04-26T09:27:17.609Z,99.90
2023-04-26T09:30:06.573Z,99.90
2023-04-26T09:32:57.656Z,99.90
2023-04-26T09:35:32.671Z,99.90
2023-04-26T09:38:14.025Z,99.90
2023-04-26T09:40:43.751Z,99.90
2023-04-26T09:43:18.616Z,84.10
2023-04-26T09:45:53.406Z,99.90
2023-04-26T09:48:25.879Z,94.00
2023-04-26T09:50:54.624Z,86.60
2023-04-26T09:53:39.885Z,55.90
2023-04-26T09:56:20.209Z,33.30
2023-04-26T09:58:46.977Z,28.50
2023-04-26T10:01:16.641Z,30.20
2023-04-26T10:03:44.182Z,19.40
2023-04-26T10:06:12.928Z,12.40
2023-04-26T10:08:39.874Z,1.00
2023-04-26T10:11:13.857Z,1.00
2023-04-26T10:13:41.976Z,5.70
2023-04-26T10:16:10.090Z,4.90
2023-04-26T10:18:37.480Z,12.30
2023-04-26T10:21:17.115Z,20.10
2023-04-26T10:23:44.186Z,20.90
2023-04-26T10:26:57.526Z,17.10
2023-04-26T10:29:26.015Z,21.00
2023-04-26T10:32:02.086Z,5.20
2023-04-26T10:34:33.338Z,1.00
2023-04-26T10:37:16.401Z,1.00
2023-04-26T10:39:44.420Z,1.00
2023-04-26T10:42:24.706Z,1.00
2023-04-26T10:44:53.241Z,1.00
2023-04-26T10:47:38.940Z,1.00
2023-04-26T10:50:10.248Z,1.00
2023-04-26T10:52:39.501Z,1.00
2023-04-26T10:55:07.783Z,1.00
2023-04-26T10:57:52.178Z,1.00
2023-04-26T11:00:21.226Z,1.00
2023-04-26T11:03:04.115Z,1.00
2023-04-26T11:05:54.009Z,1.00
2023-04-26T11:08:28.565Z,1.00
2023-04-26T11:11:04.760Z,1.00
2023-04-26T11:13:40.174Z,1.00
2023-04-26T11:16:14.811Z,1.00
2023-04-26T11:18:43.565Z,1.00
2023-04-26T11:21:11.190Z,1.00
2023-04-26T11:23:38.049Z,1.00
2023-04-26T11:26:06.757Z,1.00
2023-04-26T11:28:35.107Z,1.00
2023-04-26T11:31:04.139Z,1.00
2023-04-26T11:33:31.407Z,1.00
2023-04-26T11:35:58.664Z,1.00
2023-04-26T11:38:26.749Z,1.00
2023-04-26T11:41:00.533Z,1.00
2023-04-26T11:43:37.475Z,1.00
2023-04-26T11:46:05.838Z,1.00
2023-04-26T11:48:34.655Z,3.30
2023-04-26T11:51:04.041Z,1.00
2023-04-26T11:53:41.981Z,1.00
2023-04-26T11:56:18.703Z,1.00
2023-04-26T11:58:50.420Z,1.00
2023-04-26T12:01:25.790Z,1.00
2023-04-26T12:03:59.628Z,1.00
2023-04-26T12:06:47.175Z,1.00
2023-04-26T12:09:14.071Z,1.00
2023-04-26T12:11:40.854Z,1.00
2023-04-26T12:14:09.868Z,1.00
2023-04-26T12:16:37.461Z,1.00
2023-04-26T12:19:08.753Z,1.00
2023-04-26T12:21:42.828Z,1.00
2023-04-26T12:24:26.951Z,1.00
2023-04-26T12:26:53.752Z,1.00
2023-04-26T12:29:20.608Z,1.00
2023-04-26T12:31:47.834Z,1.00
2023-04-26T12:34:14.702Z,1.00
2023-04-26T12:36:44.410Z,1.00
2023-04-26T12:39:13.499Z,1.00
2023-04-26T12:41:41.411Z,1.00
2023-04-26T12:44:08.604Z,1.00
2023-04-26T12:46:36.408Z,1.00
2023-04-26T12:49:03.907Z,1.00
2023-04-26T12:51:32.003Z,1.00
2023-04-26T12:53:59.074Z,1.00
2023-04-26T12:56:25.935Z,1.00
2023-04-26T12:58:52.739Z,1.00
2023-04-26T13:01:19.583Z,1.00
2023-04-26T13:03:46.821Z,1.00
2023-04-26T13:06:13.842Z,1.00
2023-04-26T13:08:41.690Z,1.00
2023-04-26T13:11:08.478Z,1.00
2023-04-26T13:13:43.037Z,1.00
2023-04-26T13:16:12.332Z,1.00
2023-04-26T13:18:40.055Z,1.00
2023-04-26T13:21:06.868Z,1.00
2023-04-26T13:23:33.689Z,1.00
2023-04-26T13:26:00.478Z,1.00
2023-04-26T13:28:27.283Z,1.00
2023-04-26T13:30:54.176Z,1.00
2023-04-26T13:33:21.422Z,1.00
2023-04-26T13:35:48.829Z,1.00
2023-04-26T13:38:16.590Z,1.00
2023-04-26T13:40:44.034Z,1.00
2023-04-26T13:43:10.886Z,1.00
2023-04-26T13:45:37.711Z,1.00
2023-04-26T13:48:04.724Z,1.00
2023-04-26T13:50:31.520Z,1.00
2023-04-26T13:52:58.398Z,1.00
2023-04-26T13:55:25.810Z,1.00
2023-04-26T13:57:52.786Z,1.00
2023-04-26T14:00:19.920Z,1.00
2023-04-26T14:02:46.857Z,1.00
2023-04-26T14:05:13.914Z,1.00
2023-04-26T14:07:41.550Z,1.00
2023-04-26T14:10:09.074Z,1.00
2023-04-26T14:12:35.924Z,1.00
2023-04-26T14:15:04.347Z,1.00
2023-04-26T14:17:32.569Z,1.00
2023-04-26T14:19:59.464Z,1.00
2023-04-26T14:22:26.942Z,1.00
2023-04-26T14:24:53.906Z,1.00
2023-04-26T14:27:20.878Z,1.00
2023-04-26T14:29:47.678Z,1.00
2023-04-26T14:32:14.611Z,1.00
2023-04-26T14:34:41.999Z,1.00
2023-04-26T14:37:09.056Z,1.00
2023-04-26T14:39:36.001Z,1.00
2023-04-26T14:42:04.118Z,1.00
2023-04-26T14:44:30.999Z,1.00
2023-04-26T14:46:57.847Z,1.00
2023-04-26T14:49:24.686Z,1.00
2023-04-26T14:51:53.612Z,1.00
2023-04-26T14:54:21.133Z,1.00
2023-04-26T14:56:48.835Z,1.00
2023-04-26T14:59:16.030Z,1.00
2023-04-26T15:01:42.836Z,1.00
2023-04-26T15:04:09.865Z,1.00
2023-04-26T15:06:37.171Z,1.00
2023-04-26T15:09:04.605Z,1.00
2023-04-26T15:11:31.478Z,1.00
2023-04-26T15:13:58.193Z,1.00
2023-04-26T15:16:25.042Z,1.00
2023-04-26T15:18:51.977Z,1.00
2023-04-26T15:21:19.214Z,1.00
2023-04-26T15:23:46.490Z,1.00
2023-04-26T15:26:13.959Z,1.00
2023-04-26T15:28:40.833Z,1.00
2023-04-26T15:31:11.421Z,1.00
2023-04-26T15:33:38.384Z,1.00
2023-04-26T15:36:05.682Z,1.00
2023-04-26T15:38:34.801Z,1.00
2023-04-26T15:41:01.780Z,1.00
2023-04-26T15:43:28.664Z,1.00
2023-04-26T15:45:55.683Z,1.00
2023-04-26T15:48:22.511Z,1.00
2023-04-26T15:50:50.647Z,1.00
2023-04-26T15:53:17.645Z,1.00
2023-04-26T15:55:44.690Z,1.00
2023-04-26T15:58:11.529Z,1.00
2023-04-26T16:00:38.369Z,1.00
2023-04-26T16:03:05.263Z,1.00
2023-04-26T16:05:32.185Z,1.00
2023-04-26T16:07:59.727Z,1.00
2023-04-26T16:10:26.891Z,1.00
2023-04-26T16:12:54.031Z,1.00
2023-04-26T16:15:21.056Z,1.00
2023-04-26T16:17:47.869Z,1.00
2023-04-26T16:20:15.240Z,1.00
2023-04-26T16:22:45.054Z,1.00
2023-04-26T16:25:12.157Z,1.00
2023-04-26T16:27:39.007Z,1.00
2023-04-26T16:30:06.389Z,1.00
2023-04-26T16:32:34.071Z,1.00
2023-04-26T16:35:01.002Z,1.00
2023-04-26T16:37:27.845Z,1.00
2023-04-26T16:39:55.826Z,1.00
2023-04-26T16:42:23.015Z,1.00
2023-04-26T16:44:49.818Z,1.00
2023-04-26T16:47:16.674Z,1.00
2023-04-26T16:49:43.414Z,1.00
2023-04-26T16:52:10.371Z,1.00
2023-04-26T16:54:37.327Z,1.00
2023-04-26T16:57:04.550Z,1.00
2023-04-26T16:59:31.340Z,1.00
2023-04-26T17:01:58.283Z,1.00
2023-04-26T17:04:26.327Z,1.00
2023-04-26T17:06:54.570Z,1.00
2023-04-26T17:09:21.488Z,1.00
2023-04-26T17:11:49.897Z,1.00
2023-04-26T17:14:16.873Z,1.00
2023-04-26T17:16:43.835Z,1.00
2023-04-26T17:19:10.927Z,1.00
2023-04-26T17:21:37.780Z,1.00
2023-04-26T17:24:04.758Z,1.00
2023-04-26T17:26:31.641Z,1.00
2023-04-26T17:28:58.611Z,1.00
2023-04-26T17:31:25.606Z,1.00
2023-04-26T17:33:52.454Z,1.00
2023-04-26T17:36:19.546Z,1.00
2023-04-26T17:38:46.392Z,1.00
2023-04-26T17:41:13.623Z,1.00
2023-04-26T17:43:40.576Z,1.00
2023-04-26T17:46:09.241Z,1.00
2023-04-26T17:48:36.142Z,1.00
2023-04-26T17:51:03.240Z,1.00
2023-04-26T17:53:30.029Z,1.00
2023-04-26T17:55:57.166Z,1.00
2023-04-26T17:58:23.985Z,1.00
2023-04-26T18:00:50.881Z,1.00
2023-04-26T18:03:17.989Z,1.00
2023-04-26T18:05:45.094Z,1.00
2023-04-26T18:08:11.880Z,1.00
2023-04-26T18:10:39.140Z,1.00
2023-04-26T18:13:05.917Z,1.00
2023-04-26T18:15:32.661Z,1.00
2023-04-26T18:17:59.595Z,1.00
2023-04-26T18:20:27.340Z,1.00
2023-04-26T18:22:54.114Z,1.00
2023-04-26T18:25:20.902Z,1.00
2023-04-26T18:27:47.806Z,1.00
2023-04-26T18:30:14.745Z,1.00
2023-04-26T18:32:41.579Z,1.00
2023-04-26T18:35:09.164Z,1.00
2023-04-26T18:37:36.120Z,1.00
2023-04-26T18:40:04.843Z,1.00
2023-04-26T18:42:31.627Z,1.00
2023-04-26T18:44:58.412Z,1.00
2023-04-26T18:47:25.479Z,1.00
2023-04-26T18:49:52.242Z,1.00
2023-04-26T18:52:18.981Z,1.00
2023-04-26T18:54:46.125Z,1.00
2023-04-26T18:57:14.698Z,1.00
2023-04-26T18:59:41.637Z,1.00
2023-04-26T19:02:08.634Z,1.00
2023-04-26T19:04:35.659Z,1.00
2023-04-26T19:07:02.657Z,1.00
2023-04-26T19:09:39.648Z,1.00
2023-04-26T19:12:13.676Z,1.00
2023-04-26T19:14:40.448Z,1.00
2023-04-26T19:17:07.491Z,1.00
2023-04-26T19:19:34.260Z,1.00
2023-04-26T19:22:01.251Z,1.00
2023-04-26T19:24:28.028Z,1.00
2023-04-26T19:26:54.920Z,1.00
2023-04-26T19:29:21.836Z,1.00
2023-04-26T19:31:48.690Z,1.00
2023-04-26T19:34:16.264Z,1.00
2023-04-26T19:36:43.443Z,1.00
2023-04-26T19:39:10.221Z,1.00
2023-04-26T19:41:37.094Z,1.00
2023-04-26T19:44:03.858Z,1.00
2023-04-26T19:46:30.903Z,1.00
2023-04-26T19:48:57.688Z,1.00
2023-04-26T19:51:24.436Z,1.00
2023-04-26T19:53:51.401Z,1.00
2023-04-26T19:56:18.186Z,1.00
2023-04-26T19:58:45.030Z,1.00
2023-04-26T20:01:11.908Z,1.00
2023-04-26T20:03:41.430Z,1.00
2023-04-26T20:06:09.660Z,1.00
2023-04-26T20:08:36.472Z,1.00
2023-04-26T20:11:05.037Z,1.00
2023-04-26T20:13:32.661Z,1.00
2023-04-26T20:15:59.422Z,1.00
2023-04-26T20:18:26.193Z,1.00
2023-04-26T20:20:53.028Z,1.00
2023-04-26T20:23:19.751Z,1.00
2023-04-26T20:25:46.507Z,1.00
2023-04-26T20:28:13.479Z,1.00
2023-04-26T20:30:40.433Z,1.00
2023-04-26T20:33:07.267Z,1.00
2023-04-26T20:35:34.298Z,1.00
2023-04-26T20:38:01.167Z,1.00
2023-04-26T20:40:27.942Z,1.00
2023-04-26T20:42:54.820Z,1.00
2023-04-26T20:45:21.606Z,1.00
2023-04-26T20:47:48.441Z,1.00
2023-04-26T20:50:15.247Z,1.00
2023-04-26T20:52:42.089Z,1.00
2023-04-26T20:55:09.024Z,1.00
2023-04-26T20:57:36.374Z,1.00
2023-04-26T21:00:03.744Z,1.00
2023-04-26T21:02:30.701Z,1.00
2023-04-26T21:04:57.809Z,1.00
2023-04-26T21:07:24.634Z,1.00
2023-04-26T21:09:51.368Z,1.00
2023-04-26T21:12:18.106Z,1.00
2023-04-26T21:14:47.773Z,1.00
2023-04-26T21:17:15.053Z,1.00
2023-04-26T21:19:41.911Z,1.00
2023-04-26T21:22:11.874Z,1.00
2023-04-26T21:24:38.612Z,1.00
2023-04-26T21:27:05.437Z,1.00
2023-04-26T21:29:32.267Z,1.00
2023-04-26T21:31:58.982Z,1.00
2023-04-26T21:34:25.769Z,1.00
2023-04-26T21:36:53.301Z,1.00
2023-04-26T21:39:20.087Z,1.00
2023-04-26T21:41:46.884Z,1.00
2023-04-26T21:44:13.617Z,1.00
2023-04-26T21:46:40.586Z,1.00
2023-04-26T21:49:07.690Z,1.00
2023-04-26T21:51:34.586Z,1.00
2023-04-26T21:54:01.389Z,1.00
2023-04-26T21:56:28.260Z,1.00
2023-04-26T21:58:55.033Z,1.00
2023-04-26T22:01:22.150Z,1.00
2023-04-26T22:03:49.429Z,1.00
2023-04-26T22:06:16.321Z,1.00
2023-04-26T22:08:43.084Z,1.00
2023-04-26T22:11:09.830Z,1.00
2023-04-26T22:13:36.565Z,1.00
2023-04-26T22:16:03.487Z,1.00
2023-04-26T22:18:30.476Z,1.00
2023-04-26T22:20:57.225Z,1.00
2023-04-26T22:23:24.022Z,1.00
2023-04-26T22:25:50.785Z,1.00
2023-04-26T22:28:17.613Z,1.00
2023-04-26T22:30:44.780Z,1.00
2023-04-26T22:33:12.303Z,1.00
2023-04-26T22:35:39.288Z,1.00
2023-04-26T22:38:06.125Z,1.00
2023-04-26T22:40:32.905Z,1.00
2023-04-26T22:42:59.677Z,1.00
2023-04-26T22:45:26.510Z,1.00
2023-04-26T22:47:53.316Z,1.00
2023-04-26T22:50:20.251Z,1.00
2023-04-26T22:52:47.236Z,1.00
2023-04-26T22:55:14.134Z,1.00
2023-04-26T22:57:40.976Z,1.00
2023-04-26T23:00:10.047Z,1.00
2023-04-26T23:02:37.095Z,1.00
2023-04-26T23:05:05.417Z,1.00
2023-04-26T23:07:33.506Z,1.00
2023-04-26T23:10:00.526Z,1.00
2023-04-26T23:12:27.802Z,1.00
2023-04-26T23:14:58.618Z,1.00
2023-04-26T23:17:26.604Z,1.00
2023-04-26T23:19:53.729Z,1.00
2023-04-26T23:22:20.538Z,1.00
2023-04-26T23:24:47.360Z,1.00
2023-04-26T23:27:14.725Z,1.00
2023-04-26T23:29:41.594Z,1.00
2023-04-26T23:32:08.382Z,1.00
2023-04-26T23:34:35.210Z,1.00
2023-04-26T23:37:06.973Z,1.00
2023-04-26T23:39:35.548Z,1.00
2023-04-26T23:42:02.392Z,1.00
2023-04-26T23:44:29.348Z,1.00
2023-04-26T23:46:56.264Z,1.00
2023-04-26T23:49:23.084Z,1.00
2023-04-26T23:51:49.857Z,1.00
2023-04-26T23:54:16.630Z,1.00
2023-04-26T23:56:43.403Z,1.00
2023-04-26T23:59:10.465Z,1.00
